Time;durP1;ratioP1;P1;durP2;ratioP2;P2;SDS_P1;SDS_P2;PMS_P1;PMS_P2;Temp;Humidity;BMP_temperature;BMP_pressure;BME280_temperature;BME280_humidity;BME280_pressure;Samples;Min_cycle;Max_cycle;Signal;HPM_P1;HPM_P2
2022/07/06 00:00:04;;;;;;;7.77;7.17;;;16.50;99.90;;;;;;5067272;28;20223;-53
2022/07/06 00:02:30;;;;;;;7.47;6.90;;;16.40;99.90;;;;;;5069468;28;20774;-54
2022/07/06 00:04:57;;;;;;;7.93;7.33;;;16.20;99.90;;;;;;5069673;28;20434;-56
2022/07/06 00:07:23;;;;;;;7.70;7.00;;;16.20;99.90;;;;;;5068644;28;20247;-55
2022/07/06 00:09:49;;;;;;;8.10;7.43;;;16.10;99.90;;;;;;5068891;28;20499;-53
2022/07/06 00:12:15;;;;;;;7.97;7.30;;;16.10;99.90;;;;;;5066768;28;20552;-57
2022/07/06 00:14:41;;;;;;;7.20;6.60;;;16.10;99.90;;;;;;5069461;28;20424;-51
2022/07/06 00:17:07;;;;;;;7.53;6.93;;;16.10;99.90;;;;;;5069707;28;20415;-52
2022/07/06 00:19:33;;;;;;;7.77;7.07;;;16.00;99.90;;;;;;5070131;28;20206;-52
2022/07/06 00:21:58;;;;;;;8.10;7.40;;;15.90;99.90;;;;;;5070192;28;20204;-55
2022/07/06 00:24:24;;;;;;;6.90;6.40;;;15.80;99.90;;;;;;5068980;28;20186;-50
2022/07/06 00:26:50;;;;;;;7.10;6.33;;;15.70;99.90;;;;;;5070615;28;20261;-50
2022/07/06 00:29:15;;;;;;;7.00;6.30;;;15.70;99.90;;;;;;5070797;28;20850;-55
2022/07/06 00:31:41;;;;;;;8.70;6.93;;;15.70;99.90;;;;;;5057642;28;20229;-50
2022/07/06 00:34:06;;;;;;;8.23;6.87;;;15.70;99.90;;;;;;5070087;28;20180;-49
2022/07/06 00:36:32;;;;;;;6.63;6.13;;;15.70;99.90;;;;;;5069290;28;20193;-50
2022/07/06 00:38:57;;;;;;;7.30;6.60;;;15.70;99.90;;;;;;5070147;28;20641;-53
2022/07/06 00:41:23;;;;;;;6.33;5.83;;;15.70;99.90;;;;;;5068951;28;20555;-52
2022/07/06 00:43:54;;;;;;;6.83;6.30;;;15.70;99.90;;;;;;5070489;28;20633;-49
2022/07/06 00:46:30;;;;;;;7.20;6.60;;;15.60;99.90;;;;;;5070713;28;20192;-52
2022/07/06 00:48:55;;;;;;;7.17;6.57;;;15.60;99.90;;;;;;5069987;28;20439;-49
2022/07/06 00:51:25;;;;;;;7.10;6.50;;;15.60;99.90;;;;;;5070548;28;20420;-53
2022/07/06 00:53:53;;;;;;;7.03;6.40;;;15.60;99.90;;;;;;5068424;28;20232;-50
2022/07/06 00:56:19;;;;;;;6.47;5.97;;;15.50;99.90;;;;;;5070327;28;20495;-49
2022/07/06 00:58:45;;;;;;;7.27;6.57;;;15.50;99.90;;;;;;5070758;28;20556;-53
2022/07/06 01:01:10;;;;;;;7.80;7.20;;;15.50;99.90;;;;;;5073639;28;20186;-52
2022/07/06 01:03:36;;;;;;;7.50;6.90;;;15.50;99.90;;;;;;5074494;28;20419;-51
2022/07/06 01:06:02;;;;;;;8.33;7.57;;;15.50;99.90;;;;;;5073879;28;20185;-50
2022/07/06 01:08:29;;;;;;;7.60;7.00;;;15.50;99.90;;;;;;5072985;28;20929;-50
2022/07/06 01:10:54;;;;;;;6.73;6.23;;;15.60;99.90;;;;;;5073900;28;20196;-52
2022/07/06 01:13:20;;;;;;;7.47;6.97;;;15.50;99.90;;;;;;5072466;28;20474;-51
2022/07/06 01:15:46;;;;;;;7.73;7.13;;;15.50;99.90;;;;;;5074518;28;20443;-46
2022/07/06 01:18:12;;;;;;;8.47;7.77;;;15.40;99.90;;;;;;5072557;28;20182;-52
2022/07/06 01:20:38;;;;;;;8.17;7.37;;;15.30;99.90;;;;;;5071625;28;20181;-49
2022/07/06 01:23:03;;;;;;;8.50;7.60;;;15.30;99.90;;;;;;5071877;28;20894;-51
2022/07/06 01:25:29;;;;;;;8.20;7.50;;;15.30;99.90;;;;;;5070526;28;20586;-49
2022/07/06 01:27:55;;;;;;;7.87;7.17;;;15.30;99.90;;;;;;5072414;28;20586;-49
2022/07/06 01:30:20;;;;;;;8.57;7.80;;;15.30;99.90;;;;;;5071569;28;20567;-50
2022/07/06 01:32:46;;;;;;;9.00;8.20;;;15.20;99.90;;;;;;5064465;28;20233;-47
2022/07/06 01:35:16;;;;;;;8.50;7.70;;;15.20;99.90;;;;;;5071755;28;20186;-49
2022/07/06 01:37:42;;;;;;;8.33;7.67;;;15.20;99.90;;;;;;5072268;28;20794;-49
2022/07/06 01:40:10;;;;;;;9.23;8.33;;;15.30;99.90;;;;;;5070196;28;20439;-49
2022/07/06 01:42:36;;;;;;;8.40;7.70;;;15.30;99.90;;;;;;5071688;28;20902;-49
2022/07/06 01:45:03;;;;;;;9.83;8.93;;;15.30;99.90;;;;;;5072053;28;20425;-52
2022/07/06 01:47:29;;;;;;;10.13;9.27;;;15.30;99.90;;;;;;5071644;28;20197;-48
2022/07/06 01:49:57;;;;;;;10.00;9.10;;;15.40;99.90;;;;;;5071945;28;20806;-48
2022/07/06 01:52:23;;;;;;;8.90;8.10;;;15.40;99.90;;;;;;5070167;28;20236;-52
2022/07/06 01:54:48;;;;;;;8.87;8.17;;;15.40;99.90;;;;;;5071537;28;20419;-48
2022/07/06 01:57:14;;;;;;;9.60;8.70;;;15.40;99.90;;;;;;5072245;28;20185;-51
2022/07/06 01:59:39;;;;;;;9.77;8.87;;;15.40;99.90;;;;;;5071049;28;20248;-47
2022/07/06 02:02:05;;;;;;;9.90;9.00;;;15.40;99.90;;;;;;5070481;28;20559;-49
2022/07/06 02:04:31;;;;;;;9.60;8.80;;;15.30;99.90;;;;;;5071740;28;20527;-49
2022/07/06 02:06:56;;;;;;;9.93;9.13;;;15.30;99.90;;;;;;5071379;28;20185;-48
2022/07/06 02:09:22;;;;;;;9.40;8.50;;;15.20;99.90;;;;;;5071436;28;20636;-48
2022/07/06 02:11:47;;;;;;;10.03;9.13;;;15.20;99.90;;;;;;5070384;28;20280;-49
2022/07/06 02:14:13;;;;;;;9.40;8.60;;;15.20;99.90;;;;;;5069994;28;20182;-52
2022/07/06 02:16:39;;;;;;;10.13;9.27;;;15.10;99.90;;;;;;5071700;28;20205;-50
2022/07/06 02:19:04;;;;;;;9.17;8.37;;;15.10;99.90;;;;;;5070411;28;20194;-52
2022/07/06 02:21:30;;;;;;;9.80;9.00;;;15.10;99.90;;;;;;5071060;28;20230;-48
2022/07/06 02:23:55;;;;;;;9.43;8.73;;;15.10;99.90;;;;;;5070368;28;20193;-49
2022/07/06 02:26:21;;;;;;;9.07;8.37;;;15.10;99.90;;;;;;5069987;28;20623;-49
2022/07/06 02:28:47;;;;;;;9.77;8.97;;;15.10;99.90;;;;;;5070775;28;20207;-49
2022/07/06 02:31:13;;;;;;;10.30;9.30;;;15.00;99.90;;;;;;5048977;28;20185;-50
2022/07/06 02:33:39;;;;;;;8.97;8.20;;;15.00;99.90;;;;;;5067578;28;20957;-50
2022/07/06 02:36:05;;;;;;;9.17;8.37;;;15.00;99.90;;;;;;5069611;28;20428;-52
2022/07/06 02:38:31;;;;;;;9.07;8.27;;;14.90;99.90;;;;;;5070664;28;20412;-50
2022/07/06 02:40:56;;;;;;;9.90;9.10;;;14.90;99.90;;;;;;5071508;28;20534;-51
2022/07/06 02:43:22;;;;;;;9.90;9.10;;;14.90;99.90;;;;;;5070411;28;20201;-49
2022/07/06 02:45:47;;;;;;;10.53;9.60;;;14.90;99.90;;;;;;5070871;28;20199;-49
2022/07/06 02:48:13;;;;;;;10.37;9.47;;;14.90;99.90;;;;;;5069852;28;20169;-52
2022/07/06 02:50:39;;;;;;;10.90;9.90;;;14.90;99.90;;;;;;5070883;28;20181;-51
2022/07/06 02:53:04;;;;;;;10.40;9.50;;;14.90;99.90;;;;;;5068922;28;20263;-52
2022/07/06 02:55:30;;;;;;;10.70;9.70;;;14.90;99.90;;;;;;5070574;28;20197;-49
2022/07/06 02:57:56;;;;;;;10.10;9.20;;;14.90;99.90;;;;;;5063993;28;20295;-50
2022/07/06 03:00:21;;;;;;;11.83;9.50;;;15.00;99.90;;;;;;5065862;28;20241;-50
2022/07/06 03:02:47;;;;;;;11.67;10.60;;;15.00;99.90;;;;;;5070577;28;20208;-47
2022/07/06 03:05:12;;;;;;;11.17;10.07;;;15.00;99.90;;;;;;5069184;28;20223;-48
2022/07/06 03:07:38;;;;;;;10.93;9.93;;;15.00;99.90;;;;;;5070434;28;20313;-49
2022/07/06 03:10:04;;;;;;;9.87;8.97;;;15.00;99.90;;;;;;5069511;28;20292;-51
2022/07/06 03:12:30;;;;;;;10.53;9.63;;;15.00;99.90;;;;;;5069896;28;20660;-49
2022/07/06 03:14:55;;;;;;;10.70;9.77;;;14.90;99.90;;;;;;5069647;28;20569;-54
2022/07/06 03:17:21;;;;;;;9.67;8.80;;;15.00;99.90;;;;;;5062190;28;20182;-50
2022/07/06 03:19:47;;;;;;;9.90;9.00;;;14.90;99.90;;;;;;5070375;28;20185;-49
2022/07/06 03:22:12;;;;;;;9.90;9.03;;;14.90;99.90;;;;;;5064874;28;20209;-51
2022/07/06 03:24:38;;;;;;;10.37;9.30;;;14.90;99.90;;;;;;5070005;28;20194;-51
2022/07/06 03:27:04;;;;;;;9.33;8.53;;;14.90;99.90;;;;;;5068849;28;20628;-51
2022/07/06 03:29:29;;;;;;;10.80;9.90;;;14.90;99.90;;;;;;5069166;28;20190;-50
2022/07/06 03:31:55;;;;;;;10.30;9.17;;;14.90;99.90;;;;;;5061967;28;20190;-48
2022/07/06 03:34:20;;;;;;;10.53;9.43;;;14.90;99.90;;;;;;5069623;28;20228;-48
2022/07/06 03:36:46;;;;;;;10.33;9.43;;;14.90;99.90;;;;;;5069667;28;20624;-53
2022/07/06 03:39:11;;;;;;;10.63;9.63;;;14.90;99.90;;;;;;5069300;28;20192;-46
2022/07/06 03:41:37;;;;;;;11.63;10.63;;;14.90;99.90;;;;;;5069805;28;20233;-50
2022/07/06 03:44:03;;;;;;;10.50;9.60;;;14.90;99.90;;;;;;5069340;28;20250;-48
2022/07/06 03:46:29;;;;;;;11.27;10.27;;;14.80;99.90;;;;;;5069265;28;20213;-49
2022/07/06 03:48:54;;;;;;;10.10;9.20;;;14.90;99.90;;;;;;5069235;28;20813;-53
2022/07/06 03:51:20;;;;;;;10.87;9.97;;;14.90;99.90;;;;;;5069155;28;20300;-54
2022/07/06 03:53:46;;;;;;;10.07;9.17;;;14.90;99.90;;;;;;5067058;28;20289;-50
2022/07/06 03:56:29;;;;;;;9.80;9.00;;;14.90;99.90;;;;;;5069944;28;20636;-49
2022/07/06 03:58:57;;;;;;;11.30;10.30;;;14.90;99.90;;;;;;5069479;28;20587;-50
2022/07/06 04:01:23;;;;;;;10.60;9.70;;;14.90;99.90;;;;;;5067769;28;20431;-52
2022/07/06 04:03:48;;;;;;;10.77;9.77;;;14.90;99.90;;;;;;5069116;28;20840;-53
2022/07/06 04:06:14;;;;;;;10.30;9.50;;;14.90;99.90;;;;;;5069529;28;20178;-50
2022/07/06 04:08:40;;;;;;;10.60;9.60;;;14.90;99.90;;;;;;5068871;28;20173;-54
2022/07/06 04:11:05;;;;;;;10.80;9.90;;;14.90;99.90;;;;;;5068958;28;20184;-48
2022/07/06 04:13:31;;;;;;;10.47;9.47;;;14.90;99.90;;;;;;5067723;28;20197;-49
2022/07/06 04:15:57;;;;;;;10.60;9.60;;;15.00;99.90;;;;;;5068820;28;20173;-50
2022/07/06 04:18:23;;;;;;;12.10;11.00;;;15.00;99.90;;;;;;5066736;28;21252;-50
2022/07/06 04:20:48;;;;;;;11.63;10.60;;;15.10;99.90;;;;;;5069266;28;20272;-49
2022/07/06 04:23:14;;;;;;;11.33;10.23;;;15.20;99.90;;;;;;5051349;28;20205;-53
2022/07/06 04:25:39;;;;;;;11.00;10.10;;;15.30;99.90;;;;;;5067584;28;20178;-48
2022/07/06 04:28:05;;;;;;;11.50;10.50;;;15.40;99.90;;;;;;5069501;28;20256;-52
2022/07/06 04:30:31;;;;;;;11.60;10.70;;;15.50;99.90;;;;;;5069477;28;20171;-50
2022/07/06 04:32:57;;;;;;;11.33;10.33;;;15.60;99.90;;;;;;5062036;28;20181;-52
2022/07/06 04:35:22;;;;;;;9.87;8.97;;;15.70;99.90;;;;;;5069197;28;20178;-53
2022/07/06 04:37:48;;;;;;;10.57;9.30;;;15.70;99.90;;;;;;5069267;28;20429;-52
2022/07/06 04:40:14;;;;;;;10.00;9.20;;;15.80;99.90;;;;;;5068639;28;20260;-50
2022/07/06 04:42:40;;;;;;;10.83;9.73;;;15.80;99.90;;;;;;5068214;28;20203;-49
2022/07/06 04:45:07;;;;;;;11.33;10.37;;;15.80;99.90;;;;;;5059135;28;20425;-53
2022/07/06 04:47:32;;;;;;;10.77;9.70;;;15.80;99.90;;;;;;5068885;28;20884;-48
2022/07/06 04:49:58;;;;;;;11.10;10.00;;;15.90;99.90;;;;;;5068658;28;20460;-53
2022/07/06 04:52:24;;;;;;;10.47;9.47;;;15.90;99.90;;;;;;5068046;28;20223;-49
2022/07/06 04:54:49;;;;;;;10.83;9.83;;;15.90;99.90;;;;;;5067911;28;20716;-49
2022/07/06 04:57:15;;;;;;;11.00;10.00;;;16.00;99.90;;;;;;5068391;28;20425;-51
2022/07/06 04:59:41;;;;;;;10.63;9.73;;;16.00;99.90;;;;;;5065847;28;20230;-53
2022/07/06 05:02:06;;;;;;;10.50;9.37;;;16.00;99.90;;;;;;5067540;28;20207;-52
2022/07/06 05:04:32;;;;;;;9.23;8.43;;;16.00;99.90;;;;;;5068684;28;20665;-53
2022/07/06 05:06:58;;;;;;;9.20;8.37;;;16.00;99.90;;;;;;5068600;28;20219;-52
2022/07/06 05:09:24;;;;;;;9.90;8.90;;;15.90;99.90;;;;;;5067413;28;20645;-51
2022/07/06 05:11:49;;;;;;;9.37;8.50;;;15.90;99.90;;;;;;5067937;28;20470;-49
2022/07/06 05:14:15;;;;;;;9.20;8.30;;;15.90;99.90;;;;;;5067500;28;20965;-52
2022/07/06 05:16:41;;;;;;;9.17;8.37;;;15.90;99.90;;;;;;5067661;28;20179;-50
2022/07/06 05:19:06;;;;;;;9.37;8.57;;;16.00;99.90;;;;;;5067021;28;20301;-48
2022/07/06 05:21:32;;;;;;;8.33;7.63;;;16.00;99.90;;;;;;5068586;28;20190;-49
2022/07/06 05:23:57;;;;;;;8.67;7.87;;;16.00;99.90;;;;;;5068635;28;20860;-50
2022/07/06 05:26:23;;;;;;;8.50;7.80;;;16.00;99.90;;;;;;5068082;28;20556;-50
2022/07/06 05:28:48;;;;;;;9.00;8.17;;;16.10;99.90;;;;;;5067805;28;20503;-51
2022/07/06 05:31:14;;;;;;;8.33;7.63;;;16.10;99.90;;;;;;5063320;28;20270;-54
2022/07/06 05:33:40;;;;;;;8.73;7.83;;;16.10;99.90;;;;;;5065066;28;20186;-51
2022/07/06 05:36:06;;;;;;;7.97;7.10;;;16.10;99.90;;;;;;5068468;28;20210;-51
2022/07/06 05:38:31;;;;;;;8.00;7.27;;;16.10;99.90;;;;;;5068334;28;20539;-48
2022/07/06 05:40:57;;;;;;;7.60;6.90;;;16.20;99.90;;;;;;5067794;28;20181;-51
2022/07/06 05:43:23;;;;;;;7.90;7.10;;;16.20;99.90;;;;;;5066896;28;20210;-51
2022/07/06 05:45:48;;;;;;;8.70;6.73;;;16.30;99.90;;;;;;5070268;28;20424;-53
2022/07/06 05:50:59;;;;;;;7.87;6.53;;;16.30;99.90;;;;;;5071585;28;20224;-51
2022/07/06 05:53:25;;;;;;;7.27;6.67;;;16.30;99.90;;;;;;5070623;28;20437;-50
2022/07/06 05:55:51;;;;;;;7.70;7.00;;;16.30;99.90;;;;;;5071345;28;20439;-49
2022/07/06 05:58:17;;;;;;;7.37;6.73;;;16.40;99.90;;;;;;5070935;28;20768;-50
2022/07/06 06:00:43;;;;;;;7.73;7.03;;;16.50;99.90;;;;;;5070214;28;20232;-51
2022/07/06 06:03:08;;;;;;;8.60;6.77;;;16.60;99.90;;;;;;5048869;28;20204;-49
2022/07/06 06:05:34;;;;;;;7.77;7.13;;;16.70;99.90;;;;;;5070183;28;20441;-47
2022/07/06 06:08:01;;;;;;;7.30;6.70;;;16.70;99.90;;;;;;5070098;28;20227;-50
2022/07/06 06:10:27;;;;;;;7.33;6.63;;;16.80;99.90;;;;;;5070037;28;20449;-47
2022/07/06 06:12:52;;;;;;;7.10;6.50;;;16.90;99.90;;;;;;5069919;28;20184;-50
2022/07/06 06:15:19;;;;;;;7.57;6.80;;;17.00;99.90;;;;;;5069648;28;20196;-49
2022/07/06 06:17:45;;;;;;;7.33;6.07;;;17.00;99.90;;;;;;5069367;28;20452;-51
2022/07/06 06:20:12;;;;;;;7.20;6.60;;;17.00;99.90;;;;;;5069947;28;20893;-54
2022/07/06 06:22:51;;;;;;;6.83;6.23;;;17.10;99.90;;;;;;5069441;28;20460;-53
2022/07/06 06:25:20;;;;;;;6.50;6.00;;;17.00;99.90;;;;;;5069887;28;22225;-53
2022/07/06 06:27:46;;;;;;;6.40;5.90;;;17.00;99.90;;;;;;5067341;28;20403;-49
2022/07/06 06:30:12;;;;;;;6.90;6.40;;;17.00;99.90;;;;;;5069739;28;20411;-48
2022/07/06 06:32:38;;;;;;;6.77;6.27;;;17.00;99.90;;;;;;5068837;28;20417;-48
2022/07/06 06:35:05;;;;;;;6.73;6.10;;;17.00;99.90;;;;;;5069691;28;20433;-50
2022/07/06 06:37:31;;;;;;;8.40;6.00;;;16.90;99.90;;;;;;5051713;28;20423;-48
2022/07/06 06:39:56;;;;;;;6.23;5.67;;;17.00;99.90;;;;;;5069553;28;20419;-49
2022/07/06 06:42:22;;;;;;;6.03;5.43;;;17.10;99.90;;;;;;5072079;28;20201;-49
2022/07/06 06:44:47;;;;;;;5.87;5.47;;;17.10;99.90;;;;;;5070324;28;20188;-49
2022/07/06 06:47:13;;;;;;;6.57;6.00;;;17.10;99.90;;;;;;5068822;28;20180;-50
2022/07/06 06:49:39;;;;;;;6.57;5.90;;;17.20;99.90;;;;;;5068317;28;20262;-50
2022/07/06 06:52:05;;;;;;;6.20;5.70;;;17.20;99.90;;;;;;5068262;28;20197;-49
2022/07/06 06:54:30;;;;;;;5.80;5.40;;;17.20;99.90;;;;;;5068690;28;20185;-51
2022/07/06 06:56:56;;;;;;;5.60;5.20;;;17.30;99.90;;;;;;5067796;28;20185;-50
2022/07/06 06:59:21;;;;;;;5.67;5.17;;;17.30;99.90;;;;;;5062753;28;20232;-51
2022/07/06 07:01:47;;;;;;;5.93;5.40;;;17.30;99.90;;;;;;5043903;28;20210;-51
2022/07/06 07:04:13;;;;;;;6.30;5.70;;;17.50;99.90;;;;;;5039720;28;20223;-54
2022/07/06 07:06:39;;;;;;;5.37;4.97;;;17.50;99.90;;;;;;5043267;28;20225;-54
2022/07/06 07:09:04;;;;;;;5.80;5.20;;;17.50;99.90;;;;;;5037842;28;20544;-50
2022/07/06 07:11:30;;;;;;;5.30;4.80;;;17.60;99.90;;;;;;5048577;28;20185;-51
2022/07/06 07:13:56;;;;;;;5.40;5.00;;;17.70;99.90;;;;;;5032985;28;20491;-49
2022/07/06 07:16:24;;;;;;;6.10;5.53;;;17.80;99.90;;;;;;5049851;28;20415;-55
2022/07/06 07:18:50;;;;;;;5.67;5.17;;;17.90;99.90;;;;;;5048955;28;20193;-54
2022/07/06 07:21:15;;;;;;;5.70;5.20;;;18.00;99.90;;;;;;5048911;28;20450;-52
2022/07/06 07:23:41;;;;;;;5.03;4.63;;;18.10;99.90;;;;;;5047488;28;20468;-51
2022/07/06 07:26:06;;;;;;;5.37;4.97;;;18.30;99.90;;;;;;5051251;28;20166;-52
2022/07/06 07:28:32;;;;;;;5.57;5.07;;;18.50;99.90;;;;;;5049706;28;20300;-52
2022/07/06 07:30:58;;;;;;;5.20;4.80;;;18.70;99.90;;;;;;5049465;28;20182;-49
2022/07/06 07:33:23;;;;;;;5.03;4.73;;;18.90;99.90;;;;;;5048810;28;20178;-53
2022/07/06 07:35:49;;;;;;;5.70;5.20;;;19.20;99.90;;;;;;5035341;28;20703;-52
2022/07/06 07:38:14;;;;;;;6.23;5.73;;;19.50;99.90;;;;;;5048693;28;20182;-52
2022/07/06 07:40:40;;;;;;;5.60;5.20;;;19.90;99.90;;;;;;5019769;28;20182;-53
2022/07/06 07:43:06;;;;;;;6.40;5.90;;;20.10;99.90;;;;;;5048736;28;20199;-50
2022/07/06 07:45:31;;;;;;;5.73;5.40;;;20.40;99.90;;;;;;5048259;28;20178;-55
2022/07/06 07:47:57;;;;;;;5.70;5.30;;;20.60;99.90;;;;;;5049250;28;20180;-49
2022/07/06 07:50:23;;;;;;;5.87;5.47;;;20.50;99.90;;;;;;5048318;28;20179;-53
2022/07/06 07:52:49;;;;;;;5.70;5.20;;;20.60;99.80;;;;;;5048049;28;21317;-53
2022/07/06 07:55:14;;;;;;;5.90;5.30;;;20.60;99.20;;;;;;5049852;28;20445;-56
2022/07/06 07:57:40;;;;;;;5.73;5.23;;;20.60;97.80;;;;;;5045394;28;20188;-49
2022/07/06 08:00:06;;;;;;;5.30;4.90;;;20.70;97.30;;;;;;5061522;28;20226;-49
2022/07/06 08:02:32;;;;;;;5.80;5.33;;;20.70;97.60;;;;;;5068196;28;20195;-49
2022/07/06 08:04:58;;;;;;;5.37;5.03;;;20.90;97.20;;;;;;5068205;28;20424;-51
2022/07/06 08:07:23;;;;;;;5.50;5.10;;;21.10;96.30;;;;;;5068700;28;20908;-55
2022/07/06 08:09:49;;;;;;;4.90;4.60;;;21.20;95.00;;;;;;5067445;28;20274;-56
2022/07/06 08:12:14;;;;;;;5.17;4.80;;;21.30;94.00;;;;;;5067530;28;20184;-50
2022/07/06 08:14:40;;;;;;;5.07;4.77;;;21.30;93.50;;;;;;5066683;28;20192;-54
2022/07/06 08:17:06;;;;;;;4.60;4.30;;;21.50;92.50;;;;;;5068631;28;20229;-51
2022/07/06 08:19:31;;;;;;;6.10;5.63;;;21.60;92.50;;;;;;5067428;28;20182;-54
2022/07/06 08:21:57;;;;;;;5.23;4.93;;;21.50;90.80;;;;;;5048743;28;20220;-51
2022/07/06 08:24:23;;;;;;;6.10;5.70;;;21.60;89.20;;;;;;5068670;28;20425;-54
2022/07/06 08:26:48;;;;;;;5.50;5.20;;;21.70;87.70;;;;;;5067522;28;20193;-51
2022/07/06 08:29:14;;;;;;;4.50;4.30;;;21.70;87.90;;;;;;5067873;28;20194;-53
2022/07/06 08:31:40;;;;;;;6.10;5.00;;;21.90;85.30;;;;;;5067441;28;20183;-53
2022/07/06 08:34:05;;;;;;;5.07;4.77;;;21.80;80.60;;;;;;5066749;28;20638;-53
2022/07/06 08:36:31;;;;;;;4.87;4.67;;;21.60;79.90;;;;;;5068382;28;20246;-51
2022/07/06 08:38:57;;;;;;;5.03;4.73;;;21.60;79.20;;;;;;5067177;28;20172;-49
2022/07/06 08:41:25;;;;;;;4.87;4.57;;;21.60;74.30;;;;;;5067709;28;20479;-53
2022/07/06 08:43:54;;;;;;;4.67;4.37;;;21.60;71.20;;;;;;5068093;28;20997;-54
2022/07/06 08:46:21;;;;;;;5.00;4.80;;;21.40;71.70;;;;;;5067627;28;20456;-52
2022/07/06 08:48:47;;;;;;;4.00;3.80;;;21.40;72.40;;;;;;5067976;28;20418;-53
2022/07/06 08:51:14;;;;;;;6.47;4.60;;;21.50;71.80;;;;;;5064249;28;21239;-49
2022/07/06 08:53:41;;;;;;;4.57;4.17;;;21.50;71.90;;;;;;5055355;28;20429;-53
2022/07/06 08:56:07;;;;;;;5.03;4.73;;;21.70;71.00;;;;;;5066135;28;20475;-54
2022/07/06 08:58:34;;;;;;;4.90;4.50;;;21.80;71.60;;;;;;5067889;28;20419;-53
2022/07/06 09:01:00;;;;;;;4.87;4.50;;;22.00;74.20;;;;;;5066980;28;20463;-54
2022/07/06 09:03:27;;;;;;;4.83;4.53;;;22.40;70.00;;;;;;5048609;28;20864;-49
2022/07/06 09:05:58;;;;;;;4.60;4.30;;;22.60;66.90;;;;;;5067674;28;20944;-51
2022/07/06 09:08:26;;;;;;;5.30;4.90;;;22.70;63.80;;;;;;5062195;28;20438;-53
2022/07/06 09:10:52;;;;;;;5.37;4.97;;;22.90;64.00;;;;;;5064815;28;20431;-50
2022/07/06 09:13:17;;;;;;;5.87;5.47;;;22.80;61.60;;;;;;5066112;28;20786;-53
2022/07/06 09:15:43;;;;;;;5.10;4.70;;;22.40;60.50;;;;;;5066526;28;20204;-47
2022/07/06 09:18:09;;;;;;;5.00;4.80;;;22.30;61.10;;;;;;5065073;28;20196;-52
2022/07/06 09:20:34;;;;;;;5.10;4.80;;;22.40;62.90;;;;;;5062588;28;20204;-54
2022/07/06 09:23:03;;;;;;;5.23;4.90;;;22.80;66.00;;;;;;5070947;28;20216;-52
2022/07/06 09:25:29;;;;;;;5.43;5.03;;;23.30;62.10;;;;;;5070841;28;20204;-54
2022/07/06 09:27:57;;;;;;;4.97;4.67;;;23.60;60.70;;;;;;5070667;28;20404;-51
2022/07/06 09:30:25;;;;;;;5.50;4.70;;;23.90;57.80;;;;;;5071033;28;20517;-49
2022/07/06 09:32:54;;;;;;;6.03;5.60;;;24.20;53.90;;;;;;5070452;28;20415;-51
2022/07/06 09:35:30;;;;;;;5.90;5.50;;;24.20;54.00;;;;;;5071590;28;20420;-52
2022/07/06 09:38:04;;;;;;;5.80;5.40;;;24.10;54.20;;;;;;5069883;28;20419;-54
2022/07/06 09:40:35;;;;;;;5.40;5.20;;;24.00;53.20;;;;;;5070301;28;20510;-50
2022/07/06 09:43:27;;;;;;;4.80;4.60;;;23.70;51.70;;;;;;5051649;28;20816;-53
2022/07/06 09:45:57;;;;;;;5.43;5.00;;;23.90;53.50;;;;;;5066976;28;20486;-51
2022/07/06 09:48:25;;;;;;;4.87;4.47;;;23.60;53.50;;;;;;5053674;28;21235;-53
2022/07/06 09:50:55;;;;;;;5.30;4.90;;;23.90;54.10;;;;;;5070155;28;20424;-54
2022/07/06 09:53:24;;;;;;;5.50;5.10;;;24.50;54.10;;;;;;5068444;28;20937;-54
2022/07/06 09:55:51;;;;;;;4.87;4.60;;;25.30;52.00;;;;;;5070100;28;20564;-53
2022/07/06 09:58:19;;;;;;;4.77;4.47;;;26.00;49.40;;;;;;5070536;28;20919;-52
2022/07/06 10:00:45;;;;;;;5.10;4.80;;;26.20;44.80;;;;;;5069841;28;20555;-52
2022/07/06 10:03:12;;;;;;;5.03;4.73;;;26.70;44.90;;;;;;5068756;28;20472;-49
2022/07/06 10:05:39;;;;;;;4.90;4.60;;;26.90;43.40;;;;;;5065304;28;20414;-52
2022/07/06 10:08:09;;;;;;;4.93;4.53;;;27.20;42.80;;;;;;5069310;28;20420;-51
2022/07/06 10:10:35;;;;;;;5.00;4.63;;;27.90;40.80;;;;;;5069955;28;20415;-49
2022/07/06 10:13:02;;;;;;;5.37;4.83;;;28.30;40.20;;;;;;5052256;28;20559;-51
2022/07/06 10:15:32;;;;;;;5.43;5.10;;;28.20;40.10;;;;;;5070142;28;20424;-50
2022/07/06 10:18:03;;;;;;;5.30;5.00;;;28.10;40.70;;;;;;5070376;28;21204;-49
2022/07/06 10:20:36;;;;;;;4.80;4.53;;;27.80;40.70;;;;;;5070703;28;20439;-51
2022/07/06 10:23:04;;;;;;;4.63;4.33;;;27.60;40.70;;;;;;5070401;28;20539;-49
2022/07/06 10:25:31;;;;;;;5.07;4.50;;;27.60;39.70;;;;;;5070152;28;20480;-52
2022/07/06 10:27:57;;;;;;;5.60;5.30;;;28.10;40.90;;;;;;5051706;28;20419;-50
2022/07/06 10:30:24;;;;;;;4.93;4.67;;;28.30;39.50;;;;;;5069462;28;20428;-53
2022/07/06 10:32:50;;;;;;;5.43;5.13;;;28.00;38.30;;;;;;5069060;28;20187;-54
2022/07/06 10:35:18;;;;;;;5.20;5.00;;;27.50;38.60;;;;;;5069741;28;20431;-51
2022/07/06 10:37:44;;;;;;;5.40;5.10;;;26.90;40.20;;;;;;5068138;28;20457;-52
2022/07/06 10:42:59;;;;;;;5.43;5.23;;;26.20;42.10;;;;;;5079240;28;20462;-52
2022/07/06 10:45:28;;;;;;;5.40;5.10;;;26.20;39.30;;;;;;5070718;28;20913;-53
2022/07/06 10:48:17;;;;;;;5.30;4.97;;;25.80;42.50;;;;;;5068028;28;20461;-53
2022/07/06 10:50:47;;;;;;;5.47;5.03;;;25.80;44.60;;;;;;5041553;28;20489;-53
2022/07/06 10:53:17;;;;;;;5.47;4.97;;;26.30;43.10;;;;;;5069670;28;20414;-51
2022/07/06 10:55:47;;;;;;;5.27;4.87;;;26.60;42.60;;;;;;5069597;28;20414;-49
2022/07/06 10:58:13;;;;;;;5.07;4.77;;;26.30;43.00;;;;;;5069202;28;20485;-52
2022/07/06 11:00:53;;;;;;;4.90;4.70;;;26.30;41.70;;;;;;5069227;28;20494;-54
2022/07/06 11:03:46;;;;;;;5.10;4.80;;;27.10;42.00;;;;;;5068041;28;20544;-48
2022/07/06 11:06:25;;;;;;;5.10;4.80;;;27.50;37.70;;;;;;5069366;28;20404;-50
2022/07/06 11:09:07;;;;;;;5.40;4.90;;;27.60;37.60;;;;;;5058670;28;20979;-53
2022/07/06 11:11:33;;;;;;;4.53;4.23;;;27.00;37.20;;;;;;5063982;28;20419;-52
2022/07/06 11:14:01;;;;;;;5.30;4.90;;;26.40;37.90;;;;;;5067784;28;20420;-51
2022/07/06 11:16:33;;;;;;;4.93;4.63;;;26.10;40.70;;;;;;5064102;28;20189;-53
2022/07/06 11:19:19;;;;;;;4.90;4.60;;;25.90;40.20;;;;;;5067207;28;20410;-51
2022/07/06 11:21:49;;;;;;;5.33;4.93;;;26.00;40.80;;;;;;5066574;28;20484;-53
2022/07/06 11:24:19;;;;;;;4.90;4.60;;;26.80;39.50;;;;;;5068214;28;20419;-53
2022/07/06 11:26:47;;;;;;;4.90;4.60;;;27.70;37.60;;;;;;5065487;28;20420;-51
2022/07/06 11:29:13;;;;;;;5.33;4.90;;;28.30;37.70;;;;;;5068273;28;20434;-53
2022/07/06 11:31:42;;;;;;;4.77;4.47;;;28.20;36.20;;;;;;5064783;28;21215;-55
2022/07/06 11:34:10;;;;;;;4.80;4.60;;;27.90;35.40;;;;;;5063946;28;20847;-50
2022/07/06 11:36:37;;;;;;;4.83;4.50;;;27.70;36.70;;;;;;5068161;28;20470;-53
2022/07/06 11:39:07;;;;;;;4.80;4.40;;;27.40;37.90;;;;;;5067845;28;20473;-51
2022/07/06 11:41:34;;;;;;;5.00;4.70;;;27.30;36.90;;;;;;5064876;28;21074;-53
2022/07/06 11:44:00;;;;;;;4.50;4.30;;;27.30;35.70;;;;;;5066914;28;20559;-52
2022/07/06 11:46:36;;;;;;;4.67;4.27;;;27.50;35.60;;;;;;5067533;28;20426;-50
2022/07/06 11:49:04;;;;;;;4.80;4.50;;;27.50;35.30;;;;;;5059690;28;20484;-51
2022/07/06 11:51:32;;;;;;;4.90;4.60;;;27.50;34.10;;;;;;5082690;28;20932;-55
2022/07/06 11:54:00;;;;;;;5.33;5.03;;;27.20;34.70;;;;;;5066921;28;20515;-48
2022/07/06 11:56:27;;;;;;;5.87;5.37;;;26.80;35.20;;;;;;5049296;28;20416;-52
2022/07/06 11:58:58;;;;;;;5.20;4.80;;;27.20;37.30;;;;;;5063639;28;20770;-49
2022/07/06 12:01:26;;;;;;;5.50;5.10;;;27.00;36.20;;;;;;5048834;28;20438;-51
2022/07/06 12:03:52;;;;;;;5.93;5.40;;;26.50;36.70;;;;;;5064906;28;20986;-51
2022/07/06 12:06:23;;;;;;;6.53;5.40;;;26.00;38.10;;;;;;5068341;28;20422;-52
2022/07/06 12:08:54;;;;;;;4.97;4.63;;;25.60;38.10;;;;;;5067590;28;21479;-53
2022/07/06 12:11:25;;;;;;;5.13;4.87;;;25.70;39.80;;;;;;5068542;28;20425;-50
2022/07/06 12:13:51;;;;;;;5.17;4.77;;;25.90;38.10;;;;;;5068491;28;20447;-49
2022/07/06 12:16:18;;;;;;;4.70;4.40;;;25.90;39.60;;;;;;5068824;28;20885;-52
2022/07/06 12:18:45;;;;;;;3.73;3.53;;;25.60;37.90;;;;;;5050751;28;20442;-49
2022/07/06 12:21:21;;;;;;;4.60;4.20;;;25.50;38.00;;;;;;5070429;28;21288;-52
2022/07/06 12:23:50;;;;;;;4.63;4.40;;;26.30;40.00;;;;;;5069343;28;20577;-53
2022/07/06 12:26:17;;;;;;;4.53;4.33;;;27.60;36.50;;;;;;5069411;28;20563;-53
2022/07/06 12:28:43;;;;;;;4.37;4.17;;;28.90;33.40;;;;;;5069475;28;20428;-53
2022/07/06 12:31:10;;;;;;;5.30;5.00;;;29.80;31.60;;;;;;5066825;28;20493;-52
2022/07/06 12:33:36;;;;;;;4.70;4.30;;;30.40;30.00;;;;;;5065085;28;20432;-55
2022/07/06 12:36:15;;;;;;;5.30;4.90;;;31.10;28.60;;;;;;5069909;28;20430;-51
2022/07/06 12:38:46;;;;;;;4.63;4.23;;;31.30;28.40;;;;;;5068938;28;20505;-53
2022/07/06 12:41:24;;;;;;;4.17;3.97;;;31.20;26.70;;;;;;5069732;28;20424;-54
2022/07/06 12:44:00;;;;;;;5.10;4.80;;;31.30;25.70;;;;;;5068945;28;21277;-49
2022/07/06 12:46:33;;;;;;;4.53;4.10;;;30.50;26.10;;;;;;5070045;28;20453;-54
2022/07/06 12:49:00;;;;;;;4.80;4.50;;;30.30;28.90;;;;;;5047782;28;20444;-55